Time;durP1;ratioP1;P1;durP2;ratioP2;P2;SDS_P1;SDS_P2;PMS_P1;PMS_P2;Temp;Humidity;BMP_temperature;BMP_pressure;BME280_temperature;BME280_humidity;BME280_pressure;Samples;Min_cycle;Max_cycle;Signal;HPM_P1;HPM_P2
2024/04/13 00:01:24;;;;;;;6.50;3.10;;;;;;;;;;5360099;26;20028;-64
2024/04/13 00:03:51;;;;;;;7.22;3.33;;;;;;;;;;5353821;26;20004;-64
2024/04/13 00:06:17;;;;;;;8.63;3.53;;;;;;;;;;5352203;26;20001;-64
2024/04/13 00:08:43;;;;;;;6.00;3.17;;;;;;;;;;5348546;26;20000;-63
2024/04/13 00:11:09;;;;;;;3.58;2.92;;;;;;;;;;5349304;26;20004;-67
2024/04/13 00:13:38;;;;;;;3.80;3.25;;;;;;;;;;5349629;26;20496;-63
2024/04/13 00:16:05;;;;;;;9.55;3.45;;;;;;;;;;5352061;26;20011;-63
2024/04/13 00:18:34;;;;;;;3.38;3.00;;;;;;;;;;5360693;26;20000;-67
2024/04/13 00:21:02;;;;;;;3.08;2.63;;;;;;;;;;5354717;26;20019;-64
2024/04/13 00:23:30;;;;;;;3.92;2.70;;;;;;;;;;5354351;26;20036;-64
2024/04/13 00:25:56;;;;;;;5.82;3.05;;;;;;;;;;5352663;26;20000;-63
2024/04/13 00:28:22;;;;;;;5.35;2.83;;;;;;;;;;5355531;26;20001;-64
2024/04/13 00:30:49;;;;;;;5.82;4.30;;;;;;;;;;5355684;26;20005;-64
2024/04/13 00:33:15;;;;;;;5.85;3.10;;;;;;;;;;5352486;26;20009;-63
2024/04/13 00:35:42;;;;;;;5.07;2.58;;;;;;;;;;5357572;26;20003;-63
2024/04/13 00:38:09;;;;;;;5.28;2.75;;;;;;;;;;5355750;26;20058;-63
2024/04/13 00:40:35;;;;;;;4.28;2.60;;;;;;;;;;5351141;26;20039;-63
2024/04/13 00:43:08;;;;;;;3.13;2.63;;;;;;;;;;5356169;26;20052;-63
2024/04/13 00:45:43;;;;;;;7.22;2.92;;;;;;;;;;5353386;26;20004;-64
2024/04/13 00:48:13;;;;;;;3.88;2.50;;;;;;;;;;5358820;26;20004;-64
2024/04/13 00:50:45;;;;;;;3.05;2.75;;;;;;;;;;5351591;26;20453;-63
2024/04/13 00:53:12;;;;;;;5.65;3.10;;;;;;;;;;5342660;26;20004;-63
2024/04/13 00:55:40;;;;;;;5.00;3.05;;;;;;;;;;5346814;26;20325;-63
2024/04/13 00:58:06;;;;;;;6.57;3.65;;;;;;;;;;5343211;26;20436;-64
2024/04/13 01:00:33;;;;;;;3.95;2.97;;;;;;;;;;5355189;26;20249;-63
2024/04/13 01:03:00;;;;;;;6.35;3.58;;;;;;;;;;5341922;26;20456;-63
2024/04/13 01:05:30;;;;;;;8.45;3.72;;;;;;;;;;5338068;26;20592;-63
2024/04/13 01:07:56;;;;;;;7.80;3.42;;;;;;;;;;5349952;26;20000;-63
2024/04/13 01:10:23;;;;;;;3.65;2.78;;;;;;;;;;5353340;26;20534;-64
2024/04/13 01:12:52;;;;;;;7.78;2.92;;;;;;;;;;5353396;26;20589;-63
2024/04/13 01:15:18;;;;;;;5.07;3.03;;;;;;;;;;5346047;26;20011;-63
2024/04/13 01:17:46;;;;;;;4.85;2.97;;;;;;;;;;5352042;26;20428;-63
2024/04/13 01:20:13;;;;;;;4.72;2.88;;;;;;;;;;5340867;26;20052;-63
2024/04/13 01:22:48;;;;;;;4.93;3.17;;;;;;;;;;5351110;26;20025;-63
2024/04/13 01:25:21;;;;;;;5.20;2.85;;;;;;;;;;5343778;26;20757;-63
2024/04/13 01:27:47;;;;;;;3.80;2.58;;;;;;;;;;5340114;26;20004;-63
2024/04/13 01:30:15;;;;;;;7.38;3.13;;;;;;;;;;5347467;26;20004;-63
2024/04/13 01:32:41;;;;;;;3.50;2.97;;;;;;;;;;5346795;26;20056;-71
2024/04/13 01:35:14;;;;;;;9.27;3.40;;;;;;;;;;5345280;26;20008;-70
2024/04/13 01:37:41;;;;;;;6.00;3.63;;;;;;;;;;5368533;26;20011;-71
2024/04/13 01:40:10;;;;;;;4.68;3.10;;;;;;;;;;5383429;26;20015;-71
2024/04/13 01:42:37;;;;;;;7.78;3.28;;;;;;;;;;5354643;26;20008;-71
2024/04/13 01:45:04;;;;;;;3.80;3.20;;;;;;;;;;5351340;26;20000;-72
2024/04/13 01:47:31;;;;;;;4.40;3.35;;;;;;;;;;5361825;26;20011;-71
2024/04/13 01:49:57;;;;;;;5.75;3.90;;;;;;;;;;5354328;26;19999;-71
2024/04/13 01:52:23;;;;;;;6.07;3.88;;;;;;;;;;5346422;26;20637;-71
2024/04/13 01:54:50;;;;;;;4.43;3.13;;;;;;;;;;5358104;26;20000;-71
2024/04/13 01:57:17;;;;;;;7.72;3.15;;;;;;;;;;5356134;26;20011;-71
2024/04/13 01:59:43;;;;;;;4.22;2.88;;;;;;;;;;5355879;26;20012;-72
2024/04/13 02:02:12;;;;;;;6.38;3.20;;;;;;;;;;5384522;26;20004;-71
2024/04/13 02:04:39;;;;;;;6.20;3.00;;;;;;;;;;5350927;26;20074;-71
2024/04/13 02:07:05;;;;;;;6.30;3.30;;;;;;;;;;5362909;26;20574;-71
2024/04/13 02:09:33;;;;;;;6.28;3.08;;;;;;;;;;5347611;26;19996;-71
2024/04/13 02:11:59;;;;;;;6.38;3.33;;;;;;;;;;5373774;26;21027;-70
2024/04/13 02:14:25;;;;;;;6.75;3.45;;;;;;;;;;5353832;26;20039;-70
2024/04/13 02:16:51;;;;;;;4.88;3.20;;;;;;;;;;5346151;26;20043;-70
2024/04/13 02:19:18;;;;;;;4.13;2.80;;;;;;;;;;5358889;26;20011;-71
2024/04/13 02:21:44;;;;;;;2.97;2.53;;;;;;;;;;5385730;26;20033;-71
2024/04/13 02:24:11;;;;;;;3.58;3.13;;;;;;;;;;5350585;26;20699;-71
2024/04/13 02:26:37;;;;;;;5.65;3.05;;;;;;;;;;5346052;26;20015;-71
2024/04/13 02:29:03;;;;;;;3.05;2.67;;;;;;;;;;5388463;26;19996;-70
2024/04/13 02:31:29;;;;;;;2.92;2.50;;;;;;;;;;5351872;26;20440;-71
2024/04/13 02:33:55;;;;;;;3.35;2.70;;;;;;;;;;5353330;26;20615;-71
2024/04/13 02:36:21;;;;;;;3.30;3.00;;;;;;;;;;5357873;26;20016;-70
2024/04/13 02:38:47;;;;;;;5.95;3.03;;;;;;;;;;5354093;26;20013;-71
2024/04/13 02:41:14;;;;;;;3.88;2.25;;;;;;;;;;5345672;26;20012;-71
2024/04/13 02:43:41;;;;;;;4.18;2.90;;;;;;;;;;5364944;26;20083;-70
2024/04/13 02:46:08;;;;;;;4.03;2.47;;;;;;;;;;5347358;26;20044;-70
2024/04/13 02:48:35;;;;;;;5.82;2.83;;;;;;;;;;5361686;26;20561;-70
2024/04/13 02:51:01;;;;;;;5.28;2.55;;;;;;;;;;5354021;26;19996;-71
2024/04/13 02:53:27;;;;;;;3.22;2.58;;;;;;;;;;5351012;26;20005;-72
2024/04/13 02:55:53;;;;;;;4.22;2.53;;;;;;;;;;5352013;26;20066;-71
2024/04/13 02:58:19;;;;;;;3.95;2.67;;;;;;;;;;5354535;26;20015;-71
2024/04/13 03:00:53;;;;;;;4.45;2.58;;;;;;;;;;5350906;26;20001;-71
2024/04/13 03:03:20;;;;;;;5.20;2.67;;;;;;;;;;5350661;26;19997;-70
2024/04/13 03:05:46;;;;;;;3.83;2.83;;;;;;;;;;5354486;26;20031;-70
2024/04/13 03:08:12;;;;;;;2.80;2.17;;;;;;;;;;5356957;26;20312;-70
2024/04/13 03:10:38;;;;;;;5.18;2.35;;;;;;;;;;5350066;26;20014;-71
2024/04/13 03:13:05;;;;;;;5.82;2.50;;;;;;;;;;5342545;26;20004;-71
2024/04/13 03:15:32;;;;;;;4.93;2.72;;;;;;;;;;5344532;26;20027;-71
2024/04/13 03:17:58;;;;;;;5.88;2.58;;;;;;;;;;5376321;26;19996;-71
2024/04/13 03:20:25;;;;;;;2.15;1.95;;;;;;;;;;5338755;26;20000;-71
2024/04/13 03:22:51;;;;;;;2.28;2.05;;;;;;;;;;5337322;26;20016;-70
2024/04/13 03:25:18;;;;;;;2.72;2.30;;;;;;;;;;5337543;26;20013;-71
2024/04/13 03:27:45;;;;;;;5.95;2.50;;;;;;;;;;5343752;26;20763;-71
2024/04/13 03:30:11;;;;;;;3.95;2.28;;;;;;;;;;5341274;26;20102;-71
2024/04/13 03:32:37;;;;;;;2.88;2.50;;;;;;;;;;5346678;26;20953;-70
2024/04/13 03:35:04;;;;;;;3.58;2.13;;;;;;;;;;5343787;26;20020;-71
2024/04/13 03:37:30;;;;;;;3.72;2.35;;;;;;;;;;5349688;26;20016;-70
2024/04/13 03:39:56;;;;;;;4.40;2.40;;;;;;;;;;5347857;26;20015;-71
2024/04/13 03:42:22;;;;;;;6.80;2.75;;;;;;;;;;5333159;26;20001;-72
2024/04/13 03:44:50;;;;;;;5.10;2.13;;;;;;;;;;5352663;26;20383;-71
2024/04/13 03:47:17;;;;;;;3.17;2.28;;;;;;;;;;5355427;26;20012;-71
2024/04/13 03:49:43;;;;;;;2.92;2.20;;;;;;;;;;5349677;26;20031;-72
2024/04/13 03:52:09;;;;;;;2.70;2.22;;;;;;;;;;5349288;26;20013;-70
2024/04/13 03:54:35;;;;;;;3.13;2.10;;;;;;;;;;5355976;26;19996;-72
2024/04/13 03:57:01;;;;;;;3.33;2.13;;;;;;;;;;5355058;26;20000;-71
2024/04/13 03:59:27;;;;;;;2.67;2.00;;;;;;;;;;5351376;26;20000;-72
2024/04/13 04:01:58;;;;;;;2.53;2.33;;;;;;;;;;5351563;26;20429;-71
2024/04/13 04:04:24;;;;;;;3.65;2.35;;;;;;;;;;5350526;26;20723;-72
2024/04/13 04:06:50;;;;;;;3.10;2.30;;;;;;;;;;5360772;26;20351;-72
2024/04/13 04:09:16;;;;;;;2.90;2.15;;;;;;;;;;5347961;26;19997;-70
2024/04/13 04:11:43;;;;;;;4.00;1.90;;;;;;;;;;5357275;26;20014;-72
2024/04/13 04:14:09;;;;;;;2.17;1.98;;;;;;;;;;5343387;26;20108;-72
2024/04/13 04:16:35;;;;;;;2.60;2.13;;;;;;;;;;5351315;26;20871;-72
2024/04/13 04:19:01;;;;;;;4.55;2.13;;;;;;;;;;5342438;26;20005;-71
2024/04/13 04:21:27;;;;;;;2.33;2.08;;;;;;;;;;5353402;26;20001;-71
2024/04/13 04:23:54;;;;;;;2.47;1.85;;;;;;;;;;5352295;26;19997;-71
2024/04/13 04:26:20;;;;;;;2.20;2.00;;;;;;;;;;5360299;26;20017;-72
2024/04/13 04:28:46;;;;;;;4.57;2.00;;;;;;;;;;5359991;26;20232;-71
2024/04/13 04:31:12;;;;;;;2.00;1.80;;;;;;;;;;5388668;26;20032;-71
2024/04/13 04:33:39;;;;;;;4.00;2.00;;;;;;;;;;5359207;26;20299;-73
2024/04/13 04:36:05;;;;;;;3.13;2.00;;;;;;;;;;5341917;26;20038;-71
2024/04/13 04:38:31;;;;;;;12.43;2.47;;;;;;;;;;5352399;26;19997;-71
2024/04/13 04:40:58;;;;;;;4.90;1.88;;;;;;;;;;5347714;26;20000;-71
2024/04/13 04:43:24;;;;;;;1.65;1.55;;;;;;;;;;5354395;26;20076;-73
2024/04/13 04:45:50;;;;;;;4.30;2.03;;;;;;;;;;5352214;26;20048;-72
2024/04/13 04:48:16;;;;;;;2.67;2.17;;;;;;;;;;5356663;26;19997;-71
2024/04/13 04:50:42;;;;;;;1.77;1.67;;;;;;;;;;5347749;26;20015;-71
2024/04/13 04:53:09;;;;;;;4.00;2.15;;;;;;;;;;5353401;26;20433;-71
2024/04/13 04:55:35;;;;;;;2.30;2.10;;;;;;;;;;5359805;26;20016;-71
2024/04/13 04:58:02;;;;;;;4.05;2.00;;;;;;;;;;5359464;26;20001;-71
2024/04/13 05:00:28;;;;;;;2.55;1.85;;;;;;;;;;5355717;26;20000;-72
2024/04/13 05:02:54;;;;;;;1.90;1.70;;;;;;;;;;5357702;26;20001;-72
2024/04/13 05:05:20;;;;;;;4.15;1.75;;;;;;;;;;5352396;26;20589;-72
2024/04/13 05:07:46;;;;;;;1.92;1.77;;;;;;;;;;5352735;26;20060;-72
2024/04/13 05:10:13;;;;;;;2.25;1.90;;;;;;;;;;5347485;26;20050;-71
2024/04/13 05:12:40;;;;;;;6.30;2.10;;;;;;;;;;5353105;26;20046;-71
2024/04/13 05:15:06;;;;;;;3.97;1.80;;;;;;;;;;5355398;26;20009;-71
2024/04/13 05:17:32;;;;;;;2.13;1.70;;;;;;;;;;5353958;26;20019;-71
2024/04/13 05:19:59;;;;;;;2.10;1.77;;;;;;;;;;5354113;26;20537;-71
2024/04/13 05:22:25;;;;;;;2.60;2.40;;;;;;;;;;5354084;26;20014;-71
2024/04/13 05:24:51;;;;;;;1.77;1.67;;;;;;;;;;5354839;26;19992;-71
2024/04/13 05:27:18;;;;;;;2.63;1.80;;;;;;;;;;5372173;26;20000;-71
2024/04/13 05:29:50;;;;;;;3.47;1.42;;;;;;;;;;5363770;26;19997;-71
2024/04/13 05:32:16;;;;;;;2.83;1.65;;;;;;;;;;5356359;26;20042;-71
2024/04/13 05:34:42;;;;;;;2.83;2.08;;;;;;;;;;5347434;26;20001;-71
2024/04/13 05:37:08;;;;;;;2.67;1.90;;;;;;;;;;5348707;26;20491;-72
2024/04/13 05:39:34;;;;;;;1.88;1.75;;;;;;;;;;5359949;26;20044;-71
2024/04/13 05:42:01;;;;;;;2.40;2.08;;;;;;;;;;5353647;26;20012;-71
2024/04/13 05:44:27;;;;;;;2.33;2.13;;;;;;;;;;5358752;26;20467;-73
2024/04/13 05:46:53;;;;;;;1.88;1.45;;;;;;;;;;5348143;26;20077;-71
2024/04/13 05:49:20;;;;;;;2.30;2.10;;;;;;;;;;5346188;26;20009;-72
2024/04/13 05:51:48;;;;;;;1.73;1.63;;;;;;;;;;5356198;26;20008;-71
2024/04/13 05:54:14;;;;;;;1.63;1.52;;;;;;;;;;5351807;26;20041;-72
2024/04/13 05:56:40;;;;;;;1.60;1.50;;;;;;;;;;5358405;26;20436;-71
2024/04/13 05:59:07;;;;;;;2.65;1.60;;;;;;;;;;5358222;26;20027;-71
2024/04/13 06:01:34;;;;;;;3.88;1.85;;;;;;;;;;5361335;26;20015;-71
2024/04/13 06:04:00;;;;;;;2.53;1.70;;;;;;;;;;5345424;26;20019;-71
2024/04/13 06:06:27;;;;;;;3.72;1.92;;;;;;;;;;5363565;26;20531;-72
2024/04/13 06:08:53;;;;;;;3.10;1.70;;;;;;;;;;5354555;26;20000;-72
2024/04/13 06:11:19;;;;;;;2.97;1.73;;;;;;;;;;5357548;26;20461;-71
2024/04/13 06:13:45;;;;;;;2.75;1.92;;;;;;;;;;5361583;26;20399;-71
2024/04/13 06:16:11;;;;;;;2.40;2.00;;;;;;;;;;5364138;26;20016;-63
2024/04/13 06:18:37;;;;;;;1.88;1.65;;;;;;;;;;5341919;26;20078;-63
2024/04/13 06:21:04;;;;;;;2.85;1.92;;;;;;;;;;5352964;26;20530;-64
2024/04/13 06:23:30;;;;;;;1.67;1.58;;;;;;;;;;5350297;26;20427;-63
2024/04/13 06:25:56;;;;;;;1.67;1.58;;;;;;;;;;5378297;26;20009;-63
2024/04/13 06:28:23;;;;;;;1.75;1.60;;;;;;;;;;5343918;26;20392;-63
2024/04/13 06:30:50;;;;;;;1.70;1.60;;;;;;;;;;5348235;26;20016;-63
2024/04/13 06:33:17;;;;;;;1.80;1.70;;;;;;;;;;5345407;26;20017;-63
2024/04/13 06:35:43;;;;;;;2.85;1.60;;;;;;;;;;5351762;26;20360;-69
2024/04/13 06:38:10;;;;;;;1.38;1.30;;;;;;;;;;5350400;26;20031;-71
2024/04/13 06:40:36;;;;;;;2.38;1.60;;;;;;;;;;5351390;26;20025;-65
2024/04/13 06:43:02;;;;;;;3.08;1.83;;;;;;;;;;5376234;26;20004;-64
2024/04/13 06:45:29;;;;;;;3.95;1.50;;;;;;;;;;5351886;26;20000;-68
2024/04/13 06:47:55;;;;;;;1.75;1.65;;;;;;;;;;5351580;26;20304;-69
2024/04/13 06:50:21;;;;;;;1.70;1.60;;;;;;;;;;5345477;26;20094;-68
2024/04/13 06:52:47;;;;;;;1.23;1.23;;;;;;;;;;5351179;26;20004;-65
2024/04/13 06:55:14;;;;;;;1.60;1.50;;;;;;;;;;5346223;26;20021;-62
2024/04/13 06:57:40;;;;;;;3.28;1.63;;;;;;;;;;5339654;26;20447;-62
2024/04/13 07:00:06;;;;;;;3.58;1.75;;;;;;;;;;5352631;26;20088;-63
2024/04/13 07:02:34;;;;;;;1.60;1.45;;;;;;;;;;5343641;26;21664;-64
2024/04/13 07:05:00;;;;;;;1.83;1.73;;;;;;;;;;5346922;26;20064;-62
2024/04/13 07:07:26;;;;;;;2.10;2.00;;;;;;;;;;5346758;26;20052;-63
2024/04/13 07:09:52;;;;;;;4.10;1.50;;;;;;;;;;5375895;26;20008;-62
2024/04/13 07:12:18;;;;;;;1.60;1.50;;;;;;;;;;5339976;26;20068;-63
2024/04/13 07:14:45;;;;;;;3.92;3.00;;;;;;;;;;5346650;26;20069;-63
2024/04/13 07:17:11;;;;;;;2.10;1.50;;;;;;;;;;5344224;26;20015;-63
2024/04/13 07:19:37;;;;;;;1.70;1.60;;;;;;;;;;5349716;26;19992;-63
2024/04/13 07:22:03;;;;;;;1.60;1.50;;;;;;;;;;5340283;26;20086;-63
2024/04/13 07:24:30;;;;;;;2.05;1.85;;;;;;;;;;5347552;26;21289;-62
2024/04/13 07:26:58;;;;;;;1.33;1.30;;;;;;;;;;5370745;26;20000;-63
2024/04/13 07:29:25;;;;;;;1.27;1.27;;;;;;;;;;5364051;26;20028;-66
2024/04/13 07:31:51;;;;;;;2.92;1.60;;;;;;;;;;5350822;26;20013;-64
2024/04/13 07:34:18;;;;;;;1.50;1.40;;;;;;;;;;5346025;26;20015;-64
2024/04/13 07:36:45;;;;;;;1.50;1.42;;;;;;;;;;5348181;26;20015;-63
2024/04/13 07:39:12;;;;;;;2.67;1.35;;;;;;;;;;5338606;26;20000;-64
2024/04/13 07:41:38;;;;;;;1.40;1.40;;;;;;;;;;5341873;26;20023;-64
2024/04/13 07:44:05;;;;;;;1.40;1.30;;;;;;;;;;5379410;26;20056;-64
2024/04/13 07:46:31;;;;;;;1.58;1.48;;;;;;;;;;5353103;26;20628;-64
2024/04/13 07:48:58;;;;;;;1.45;1.35;;;;;;;;;;5348168;26;20008;-64
2024/04/13 07:51:24;;;;;;;1.48;1.38;;;;;;;;;;5349950;26;20024;-64
2024/04/13 07:53:50;;;;;;;1.38;1.38;;;;;;;;;;5345548;26;20529;-64
2024/04/13 07:56:16;;;;;;;2.63;1.60;;;;;;;;;;5347785;26;20142;-64
2024/04/13 07:58:42;;;;;;;1.05;1.05;;;;;;;;;;5346997;26;19997;-64
2024/04/13 08:01:08;;;;;;;1.73;1.55;;;;;;;;;;5339225;26;19996;-64
2024/04/13 08:03:35;;;;;;;2.75;1.30;;;;;;;;;;5347087;26;20078;-64
2024/04/13 08:06:01;;;;;;;1.80;1.70;;;;;;;;;;5358125;26;20359;-64
2024/04/13 08:08:27;;;;;;;1.25;1.25;;;;;;;;;;5344706;26;20003;-64
2024/04/13 08:10:53;;;;;;;1.60;1.50;;;;;;;;;;5358548;26;20000;-64
2024/04/13 08:13:20;;;;;;;1.52;1.42;;;;;;;;;;5341299;26;19997;-64
2024/04/13 08:15:46;;;;;;;3.53;2.65;;;;;;;;;;5347686;26;20020;-64
2024/04/13 08:18:14;;;;;;;1.27;1.27;;;;;;;;;;5346672;26;19997;-64
2024/04/13 08:20:40;;;;;;;1.30;1.20;;;;;;;;;;5349983;26;20395;-64
2024/04/13 08:23:07;;;;;;;1.30;1.30;;;;;;;;;;5347349;26;20004;-64
2024/04/13 08:25:33;;;;;;;1.25;1.20;;;;;;;;;;5362289;26;19996;-64
2024/04/13 08:27:59;;;;;;;1.20;1.20;;;;;;;;;;5348701;26;20001;-64
2024/04/13 08:30:25;;;;;;;1.20;1.20;;;;;;;;;;5340910;26;20020;-64
2024/04/13 08:32:52;;;;;;;1.50;1.40;;;;;;;;;;5350759;26;20007;-64
2024/04/13 08:35:18;;;;;;;1.20;1.20;;;;;;;;;;5369093;26;20510;-64
2024/04/13 08:37:47;;;;;;;1.10;1.10;;;;;;;;;;5350404;26;20008;-64
2024/04/13 08:40:14;;;;;;;1.67;1.58;;;;;;;;;;5351139;26;19996;-64
2024/04/13 08:42:41;;;;;;;1.33;1.30;;;;;;;;;;5340813;26;20284;-64
2024/04/13 08:45:12;;;;;;;1.20;1.20;;;;;;;;;;5349439;26;20348;-64
2024/04/13 08:47:39;;;;;;;2.55;1.20;;;;;;;;;;5338184;26;20004;-64
2024/04/13 08:50:07;;;;;;;1.10;1.10;;;;;;;;;;5337903;26;20450;-64
2024/04/13 08:52:34;;;;;;;1.52;1.42;;;;;;;;;;5345132;26;20048;-64
2024/04/13 08:55:00;;;;;;;1.20;1.20;;;;;;;;;;5349604;26;20343;-65
2024/04/13 08:57:29;;;;;;;1.00;1.00;;;;;;;;;;5332995;26;20027;-63
2024/04/13 09:00:02;;;;;;;1.33;1.33;;;;;;;;;;5374506;26;20521;-64
2024/04/13 09:02:31;;;;;;;1.90;1.27;;;;;;;;;;5358798;26;20085;-65
2024/04/13 09:04:58;;;;;;;2.17;1.98;;;;;;;;;;5347214;26;20798;-64
2024/04/13 09:07:25;;;;;;;2.97;1.50;;;;;;;;;;5349188;26;20260;-72
2024/04/13 09:09:54;;;;;;;1.27;1.27;;;;;;;;;;5365444;26;20036;-71
2024/04/13 09:12:20;;;;;;;1.42;1.30;;;;;;;;;;5354100;26;20000;-70
2024/04/13 09:14:46;;;;;;;1.23;1.23;;;;;;;;;;5366789;26;20009;-71
2024/04/13 09:17:13;;;;;;;1.30;1.30;;;;;;;;;;5345305;26;20020;-70
2024/04/13 09:19:39;;;;;;;2.40;1.85;;;;;;;;;;5359273;26;20001;-71
2024/04/13 09:22:07;;;;;;;1.17;1.17;;;;;;;;;;5351924;26;20018;-71
2024/04/13 09:24:43;;;;;;;1.02;1.02;;;;;;;;;;5343571;26;20087;-71
2024/04/13 09:27:15;;;;;;;1.17;1.17;;;;;;;;;;5374718;26;20011;-72
2024/04/13 09:29:42;;;;;;;1.30;1.30;;;;;;;;;;5360413;26;20476;-71
2024/04/13 09:32:08;;;;;;;1.10;1.10;;;;;;;;;;5360841;26;20009;-71
2024/04/13 09:34:37;;;;;;;4.13;1.40;;;;;;;;;;5365209;26;20000;-71
2024/04/13 09:37:11;;;;;;;1.67;1.38;;;;;;;;;;5355430;26;20035;-71
2024/04/13 09:39:41;;;;;;;1.98;1.42;;;;;;;;;;5351953;26;19993;-71
2024/04/13 09:42:09;;;;;;;1.23;1.23;;;;;;;;;;5357230;26;19999;-71
2024/04/13 09:44:35;;;;;;;1.30;1.25;;;;;;;;;;5350358;26;20007;-71
2024/04/13 09:47:01;;;;;;;1.20;1.20;;;;;;;;;;5362324;26;20023;-71
2024/04/13 09:49:27;;;;;;;2.17;1.60;;;;;;;;;;5347746;26;20493;-71
2024/04/13 09:51:53;;;;;;;1.38;1.38;;;;;;;;;;5334895;26;20024;-70
2024/04/13 09:54:26;;;;;;;2.05;1.25;;;;;;;;;;5355696;26;20004;-71
2024/04/13 09:56:52;;;;;;;1.48;1.40;;;;;;;;;;5343909;26;20012;-70
2024/04/13 09:59:21;;;;;;;1.40;1.33;;;;;;;;;;5372350;26;20000;-71
2024/04/13 10:01:48;;;;;;;2.30;1.30;;;;;;;;;;5343551;26;20009;-71
2024/04/13 10:04:14;;;;;;;2.00;1.35;;;;;;;;;;5359083;26;20420;-71
2024/04/13 10:06:41;;;;;;;1.30;1.30;;;;;;;;;;5349497;26;20015;-71
2024/04/13 10:09:11;;;;;;;1.42;1.20;;;;;;;;;;5356940;26;20360;-70
2024/04/13 10:11:43;;;;;;;1.10;1.10;;;;;;;;;;5383702;26;20011;-69
2024/04/13 10:14:12;;;;;;;1.45;1.35;;;;;;;;;;5373644;26;20040;-70
2024/04/13 10:16:40;;;;;;;1.02;1.02;;;;;;;;;;5376366;26;20058;-70
2024/04/13 10:19:09;;;;;;;1.45;1.40;;;;;;;;;;5380029;26;20007;-69
2024/04/13 10:21:37;;;;;;;1.40;1.40;;;;;;;;;;5362343;26;20044;-70
2024/04/13 10:24:04;;;;;;;2.55;1.20;;;;;;;;;;5377993;26;20584;-70
2024/04/13 10:26:30;;;;;;;1.20;1.20;;;;;;;;;;5361983;26;20750;-70
2024/04/13 10:28:57;;;;;;;1.17;1.17;;;;;;;;;;5378034;26;20077;-70
2024/04/13 10:31:26;;;;;;;1.38;1.20;;;;;;;;;;5383816;26;20004;-71
2024/04/13 10:33:53;;;;;;;1.65;1.10;;;;;;;;;;5378833;26;20917;-70
2024/04/13 10:36:26;;;;;;;1.30;1.20;;;;;;;;;;5370030;26;20040;-70
2024/04/13 10:38:55;;;;;;;2.22;1.48;;;;;;;;;;5397489;26;20409;-70
2024/04/13 10:41:32;;;;;;;3.92;1.33;;;;;;;;;;5362341;26;20083;-71
2024/04/13 10:43:58;;;;;;;1.20;1.20;;;;;;;;;;5369093;26;19996;-64
2024/04/13 10:46:25;;;;;;;1.55;1.45;;;;;;;;;;5378377;26;20000;-64
2024/04/13 10:48:52;;;;;;;1.63;1.45;;;;;;;;;;5370927;26;20023;-64
2024/04/13 10:51:21;;;;;;;2.40;1.40;;;;;;;;;;5383075;26;20090;-65
2024/04/13 10:53:48;;;;;;;1.23;1.23;;;;;;;;;;5367260;26;20012;-64
2024/04/13 10:56:14;;;;;;;2.10;1.40;;;;;;;;;;5364912;26;20008;-65
2024/04/13 10:58:40;;;;;;;1.63;1.50;;;;;;;;;;5364432;26;20000;-72
2024/04/13 11:01:06;;;;;;;3.60;1.42;;;;;;;;;;5373293;26;20491;-69
2024/04/13 11:03:35;;;;;;;3.33;1.67;;;;;;;;;;5366811;26;19996;-66
2024/04/13 11:06:02;;;;;;;2.25;1.52;;;;;;;;;;5369173;26;20466;-64
2024/04/13 11:08:28;;;;;;;1.98;1.65;;;;;;;;;;5371621;26;20832;-64
2024/04/13 11:10:56;;;;;;;2.78;1.73;;;;;;;;;;5356864;26;20341;-64
2024/04/13 11:13:23;;;;;;;3.42;1.50;;;;;;;;;;5363009;26;20940;-64
2024/04/13 11:15:49;;;;;;;5.38;1.70;;;;;;;;;;5372397;26;20007;-64
2024/04/13 11:18:17;;;;;;;2.20;1.58;;;;;;;;;;5362986;26;19991;-64
2024/04/13 11:20:44;;;;;;;2.95;1.77;;;;;;;;;;5382278;26;20008;-64
2024/04/13 11:23:11;;;;;;;1.80;1.70;;;;;;;;;;5358060;26;19999;-64
2024/04/13 11:25:38;;;;;;;1.60;1.50;;;;;;;;;;5373468;26;20498;-64
2024/04/13 11:28:05;;;;;;;4.30;1.50;;;;;;;;;;5376450;26;20367;-63
2024/04/13 11:30:41;;;;;;;2.03;1.40;;;;;;;;;;5373447;26;19995;-63
2024/04/13 11:33:08;;;;;;;2.38;1.50;;;;;;;;;;5392441;26;20038;-63
2024/04/13 11:35:35;;;;;;;1.80;1.70;;;;;;;;;;5378010;26;21672;-63
2024/04/13 11:38:01;;;;;;;3.33;1.38;;;;;;;;;;5370483;26;20394;-63
2024/04/13 11:40:31;;;;;;;2.20;1.73;;;;;;;;;;5349241;26;20543;-62
2024/04/13 11:42:57;;;;;;;1.40;1.30;;;;;;;;;;5352661;26;19997;-63
2024/04/13 11:45:24;;;;;;;1.77;1.42;;;;;;;;;;5345812;26;20127;-63
2024/04/13 11:47:50;;;;;;;2.00;1.90;;;;;;;;;;5361022;26;20415;-64
2024/04/13 11:50:17;;;;;;;1.52;1.42;;;;;;;;;;5349766;26;20074;-64
2024/04/13 11:52:43;;;;;;;1.60;1.50;;;;;;;;;;5348567;26;20317;-63
2024/04/13 11:55:09;;;;;;;2.70;1.30;;;;;;;;;;5346337;26;20526;-63
2024/04/13 11:57:46;;;;;;;2.30;1.50;;;;;;;;;;5347000;26;20085;-63
2024/04/13 12:00:13;;;;;;;1.77;1.67;;;;;;;;;;5351833;26;20078;-63
2024/04/13 12:02:39;;;;;;;1.77;1.67;;;;;;;;;;5358952;26;20000;-63
2024/04/13 12:05:05;;;;;;;1.73;1.50;;;;;;;;;;5355307;26;20016;-63
2024/04/13 12:07:32;;;;;;;3.13;2.08;;;;;;;;;;5360337;26;20468;-64
2024/04/13 12:09:58;;;;;;;4.72;1.80;;;;;;;;;;5357772;26;20000;-64
2024/04/13 12:12:25;;;;;;;5.10;2.17;;;;;;;;;;5361881;26;20004;-64
2024/04/13 12:14:53;;;;;;;2.33;1.30;;;;;;;;;;5334948;26;19997;-64
2024/04/13 12:17:19;;;;;;;2.28;1.33;;;;;;;;;;5338400;26;20017;-64
2024/04/13 12:19:46;;;;;;;1.70;1.27;;;;;;;;;;5354873;26;20082;-64
2024/04/13 12:22:12;;;;;;;2.40;1.58;;;;;;;;;;5359608;26;20000;-64
2024/04/13 12:24:38;;;;;;;2.80;1.40;;;;;;;;;;5360896;26;20014;-66
2024/04/13 12:27:05;;;;;;;2.42;1.35;;;;;;;;;;5357857;26;20526;-70
2024/04/13 12:29:32;;;;;;;3.28;1.45;;;;;;;;;;5343895;26;20012;-69
2024/04/13 12:31:58;;;;;;;4.90;1.48;;;;;;;;;;5356660;26;20013;-69
2024/04/13 12:34:24;;;;;;;2.15;1.42;;;;;;;;;;5361428;26;20643;-69
2024/04/13 12:36:50;;;;;;;1.85;1.75;;;;;;;;;;5351127;26;20033;-69
2024/04/13 12:39:17;;;;;;;1.75;1.48;;;;;;;;;;5360061;26;20004;-68
2024/04/13 12:41:44;;;;;;;2.65;1.50;;;;;;;;;;5348613;26;20678;-66
2024/04/13 12:44:10;;;;;;;3.15;1.33;;;;;;;;;;5363215;26;20440;-72
2024/04/13 12:46:37;;;;;;;3.70;1.50;;;;;;;;;;5354072;26;20004;-70
2024/04/13 12:49:04;;;;;;;1.85;1.55;;;;;;;;;;5348421;26;20015;-71
2024/04/13 12:51:30;;;;;;;2.65;1.35;;;;;;;;;;5359462;26;20015;-70
2024/04/13 12:53:56;;;;;;;2.40;1.45;;;;;;;;;;5377297;26;20012;-69
2024/04/13 12:56:22;;;;;;;1.60;1.38;;;;;;;;;;5368329;26;20431;-69
2024/04/13 12:58:48;;;;;;;2.80;1.85;;;;;;;;;;5367477;26;20448;-69
2024/04/13 13:01:15;;;;;;;4.60;2.22;;;;;;;;;;5365989;26;20008;-69
2024/04/13 13:03:41;;;;;;;2.78;1.98;;;;;;;;;;5369517;26;19996;-69
2024/04/13 13:06:07;;;;;;;8.05;2.33;;;;;;;;;;5373146;26;20607;-69
2024/04/13 13:08:34;;;;;;;6.20;1.80;;;;;;;;;;5367289;26;20532;-69
2024/04/13 13:11:00;;;;;;;3.28;1.75;;;;;;;;;;5355220;26;20382;-68
2024/04/13 13:13:26;;;;;;;2.10;1.67;;;;;;;;;;5359993;26;20011;-69
2024/04/13 13:15:53;;;;;;;3.33;1.90;;;;;;;;;;5352757;26;20013;-69
2024/04/13 13:18:19;;;;;;;4.50;2.10;;;;;;;;;;5353035;26;20016;-69
2024/04/13 13:20:46;;;;;;;4.15;2.25;;;;;;;;;;5359291;26;20004;-69
2024/04/13 13:23:12;;;;;;;4.15;2.03;;;;;;;;;;5358201;26;20001;-68
2024/04/13 13:25:38;;;;;;;3.28;1.98;;;;;;;;;;5353569;26;20012;-68
2024/04/13 13:28:06;;;;;;;1.92;1.73;;;;;;;;;;5353128;26;20001;-68
2024/04/13 13:30:36;;;;;;;7.43;2.67;;;;;;;;;;5353576;26;20473;-69
2024/04/13 13:33:02;;;;;;;3.25;2.63;;;;;;;;;;5343392;26;20405;-69
2024/04/13 13:35:28;;;;;;;3.22;1.83;;;;;;;;;;5354599;26;20005;-68
2024/04/13 13:37:54;;;;;;;5.13;2.30;;;;;;;;;;5356590;26;20033;-69
2024/04/13 13:40:21;;;;;;;3.35;2.42;;;;;;;;;;5353191;26;20011;-69
2024/04/13 13:42:48;;;;;;;5.10;2.17;;;;;;;;;;5361478;26;20636;-69
2024/04/13 13:45:17;;;;;;;4.50;2.05;;;;;;;;;;5356503;26;20005;-68
2024/04/13 13:47:43;;;;;;;4.13;2.47;;;;;;;;;;5358650;26;19997;-68
2024/04/13 13:50:10;;;;;;;4.47;1.80;;;;;;;;;;5354077;26;22213;-72
2024/04/13 13:52:37;;;;;;;6.57;2.08;;;;;;;;;;5357867;26;20032;-69
2024/04/13 13:55:03;;;;;;;5.20;1.85;;;;;;;;;;5361622;26;20022;-69
2024/04/13 13:57:30;;;;;;;2.67;1.63;;;;;;;;;;5356201;26;20499;-70
2024/04/13 13:59:56;;;;;;;3.42;2.22;;;;;;;;;;5361180;26;20000;-73
2024/04/13 14:02:23;;;;;;;3.15;2.00;;;;;;;;;;5354882;26;20435;-71
2024/04/13 14:04:49;;;;;;;9.02;3.10;;;;;;;;;;5349802;26;20085;-70
2024/04/13 14:07:15;;;;;;;1.88;1.73;;;;;;;;;;5346476;26;20030;-71
2024/04/13 14:09:42;;;;;;;2.00;1.80;;;;;;;;;;5357773;26;20047;-70
2024/04/13 14:12:08;;;;;;;6.22;2.25;;;;;;;;;;5358833;26;19996;-71
2024/04/13 14:14:36;;;;;;;2.22;1.83;;;;;;;;;;5358192;26;20015;-71
2024/04/13 14:17:02;;;;;;;2.40;2.15;;;;;;;;;;5350069;26;20019;-71
2024/04/13 14:19:29;;;;;;;5.07;2.40;;;;;;;;;;5349587;26;20019;-69
2024/04/13 14:21:55;;;;;;;2.83;1.70;;;;;;;;;;5356539;26;20004;-69
2024/04/13 14:24:24;;;;;;;4.22;2.25;;;;;;;;;;5351286;26;20020;-68
2024/04/13 14:26:50;;;;;;;4.88;1.67;;;;;;;;;;5343204;26;20091;-68
2024/04/13 14:29:17;;;;;;;2.05;1.73;;;;;;;;;;5349242;26;20052;-64
2024/04/13 14:31:43;;;;;;;4.78;2.03;;;;;;;;;;5356881;26;20347;-64
2024/04/13 14:34:13;;;;;;;2.15;1.63;;;;;;;;;;5356152;26;20004;-64
2024/04/13 14:36:40;;;;;;;4.40;1.73;;;;;;;;;;5347752;26;20491;-66
2024/04/13 14:39:06;;;;;;;3.83;2.25;;;;;;;;;;5380215;26;20225;-65
2024/04/13 14:41:33;;;;;;;3.30;1.90;;;;;;;;;;5348763;26;20553;-68